sensor_id;sensor_type;location;lat;lon;timestamp;P1;durP1;ratioP1;P2;durP2;ratioP2
24259;SDS011;12384;48.112;18.418;2023-03-04T00:00:58;13.77;;;12.37;;
24259;SDS011;12384;48.112;18.418;2023-03-04T00:03:26;13.93;;;12.53;;
24259;SDS011;12384;48.112;18.418;2023-03-04T00:05:55;13.73;;;12.43;;
24259;SDS011;12384;48.112;18.418;2023-03-04T00:08:24;13.80;;;12.30;;
24259;SDS011;12384;48.112;18.418;2023-03-04T00:10:53;14.37;;;12.90;;
24259;SDS011;12384;48.112;18.418;2023-03-04T00:13:21;14.87;;;12.90;;
24259;SDS011;12384;48.112;18.418;2023-03-04T00:15:50;14.70;;;13.23;;
24259;SDS011;12384;48.112;18.418;2023-03-04T00:18:19;13.97;;;12.57;;
24259;SDS011;12384;48.112;18.418;2023-03-04T00:20:47;13.57;;;12.30;;
24259;SDS011;12384;48.112;18.418;2023-03-04T00:23:16;12.67;;;11.50;;
24259;SDS011;12384;48.112;18.418;2023-03-04T00:25:46;13.37;;;12.10;;
24259;SDS011;12384;48.112;18.418;2023-03-04T00:28:14;14.43;;;12.93;;
24259;SDS011;12384;48.112;18.418;2023-03-04T00:30:42;12.57;;;11.37;;
24259;SDS011;12384;48.112;18.418;2023-03-04T00:33:11;13.93;;;12.43;;
24259;SDS011;12384;48.112;18.418;2023-03-04T00:35:39;14.60;;;13.03;;
24259;SDS011;12384;48.112;18.418;2023-03-04T00:38:08;14.00;;;12.60;;
24259;SDS011;12384;48.112;18.418;2023-03-04T00:40:37;14.90;;;13.37;;
24259;SDS011;12384;48.112;18.418;2023-03-04T00:43:06;14.27;;;12.77;;
24259;SDS011;12384;48.112;18.418;2023-03-04T00:45:35;14.80;;;12.87;;
24259;SDS011;12384;48.112;18.418;2023-03-04T00:48:03;13.53;;;12.23;;
24259;SDS011;12384;48.112;18.418;2023-03-04T00:50:33;13.40;;;12.13;;
24259;SDS011;12384;48.112;18.418;2023-03-04T00:53:01;16.47;;;13.43;;
24259;SDS011;12384;48.112;18.418;2023-03-04T00:55:30;13.07;;;11.70;;
24259;SDS011;12384;48.112;18.418;2023-03-04T00:57:58;14.77;;;13.30;;
24259;SDS011;12384;48.112;18.418;2023-03-04T01:00:28;14.87;;;13.27;;
24259;SDS011;12384;48.112;18.418;2023-03-04T01:02:57;14.57;;;13.03;;
24259;SDS011;12384;48.112;18.418;2023-03-04T01:05:25;14.07;;;12.60;;
24259;SDS011;12384;48.112;18.418;2023-03-04T01:07:54;13.70;;;12.30;;
24259;SDS011;12384;48.112;18.418;2023-03-04T01:10:22;15.33;;;13.90;;
24259;SDS011;12384;48.112;18.418;2023-03-04T01:12:51;15.50;;;13.90;;
24259;SDS011;12384;48.112;18.418;2023-03-04T01:15:19;16.03;;;14.33;;
24259;SDS011;12384;48.112;18.418;2023-03-04T01:17:49;15.03;;;13.47;;
24259;SDS011;12384;48.112;18.418;2023-03-04T01:20:18;18.70;;;13.97;;
24259;SDS011;12384;48.112;18.418;2023-03-04T01:22:46;16.07;;;14.37;;
24259;SDS011;12384;48.112;18.418;2023-03-04T01:25:15;15.47;;;13.97;;
24259;SDS011;12384;48.112;18.418;2023-03-04T01:27:43;15.93;;;14.27;;
24259;SDS011;12384;48.112;18.418;2023-03-04T01:30:12;16.83;;;13.87;;
24259;SDS011;12384;48.112;18.418;2023-03-04T01:32:40;16.73;;;15.00;;
24259;SDS011;12384;48.112;18.418;2023-03-04T01:35:10;17.70;;;15.07;;
24259;SDS011;12384;48.112;18.418;2023-03-04T01:37:39;16.50;;;14.23;;
24259;SDS011;12384;48.112;18.418;2023-03-04T01:40:08;16.27;;;14.33;;
24259;SDS011;12384;48.112;18.418;2023-03-04T01:42:37;16.77;;;14.60;;
24259;SDS011;12384;48.112;18.418;2023-03-04T01:45:05;14.47;;;13.07;;
24259;SDS011;12384;48.112;18.418;2023-03-04T01:47:38;15.27;;;13.77;;
24259;SDS011;12384;48.112;18.418;2023-03-04T01:50:12;15.63;;;14.03;;
24259;SDS011;12384;48.112;18.418;2023-03-04T01:52:47;15.83;;;14.13;;
24259;SDS011;12384;48.112;18.418;2023-03-04T01:55:16;14.43;;;13.03;;
24259;SDS011;12384;48.112;18.418;2023-03-04T01:57:47;14.77;;;13.20;;
24259;SDS011;12384;48.112;18.418;2023-03-04T02:00:21;15.30;;;13.43;;
24259;SDS011;12384;48.112;18.418;2023-03-04T02:02:52;13.63;;;12.33;;
24259;SDS011;12384;48.112;18.418;2023-03-04T02:05:25;15.70;;;13.60;;
24259;SDS011;12384;48.112;18.418;2023-03-04T02:07:55;15.23;;;13.73;;
24259;SDS011;12384;48.112;18.418;2023-03-04T02:10:25;15.17;;;13.40;;
24259;SDS011;12384;48.112;18.418;2023-03-04T02:12:53;14.60;;;13.30;;
24259;SDS011;12384;48.112;18.418;2023-03-04T02:15:22;13.23;;;11.93;;
24259;SDS011;12384;48.112;18.418;2023-03-04T02:17:51;15.63;;;14.03;;
24259;SDS011;12384;48.112;18.418;2023-03-04T02:20:36;15.73;;;14.10;;
24259;SDS011;12384;48.112;18.418;2023-03-04T02:23:11;15.33;;;13.77;;
24259;SDS011;12384;48.112;18.418;2023-03-04T02:25:44;15.83;;;14.13;;
24259;SDS011;12384;48.112;18.418;2023-03-04T02:28:18;16.00;;;14.30;;
24259;SDS011;12384;48.112;18.418;2023-03-04T02:30:47;17.93;;;14.43;;
24259;SDS011;12384;48.112;18.418;2023-03-04T02:33:16;16.77;;;13.93;;
24259;SDS011;12384;48.112;18.418;2023-03-04T02:35:45;16.07;;;14.27;;
24259;SDS011;12384;48.112;18.418;2023-03-04T02:38:14;18.80;;;14.47;;
24259;SDS011;12384;48.112;18.418;2023-03-04T02:40:43;19.07;;;16.00;;
24259;SDS011;12384;48.112;18.418;2023-03-04T02:43:15;20.13;;;16.23;;
24259;SDS011;12384;48.112;18.418;2023-03-04T02:45:47;19.00;;;15.73;;
24259;SDS011;12384;48.112;18.418;2023-03-04T02:48:17;20.73;;;15.57;;
24259;SDS011;12384;48.112;18.418;2023-03-04T02:50:47;21.13;;;15.67;;
24259;SDS011;12384;48.112;18.418;2023-03-04T02:53:18;16.70;;;14.63;;
24259;SDS011;12384;48.112;18.418;2023-03-04T02:55:48;17.27;;;14.33;;
24259;SDS011;12384;48.112;18.418;2023-03-04T02:58:20;16.53;;;14.53;;
24259;SDS011;12384;48.112;18.418;2023-03-04T03:00:50;18.10;;;15.10;;
24259;SDS011;12384;48.112;18.418;2023-03-04T03:03:18;16.07;;;14.30;;
24259;SDS011;12384;48.112;18.418;2023-03-04T03:05:47;17.87;;;14.93;;
24259;SDS011;12384;48.112;18.418;2023-03-04T03:08:16;18.13;;;14.77;;
24259;SDS011;12384;48.112;18.418;2023-03-04T03:10:44;19.90;;;15.07;;
24259;SDS011;12384;48.112;18.418;2023-03-04T03:13:13;19.10;;;15.37;;
24259;SDS011;12384;48.112;18.418;2023-03-04T03:15:41;18.33;;;15.23;;
24259;SDS011;12384;48.112;18.418;2023-03-04T03:18:12;17.93;;;15.13;;
24259;SDS011;12384;48.112;18.418;2023-03-04T03:20:41;16.20;;;14.07;;
24259;SDS011;12384;48.112;18.418;2023-03-04T03:23:09;16.33;;;14.50;;
24259;SDS011;12384;48.112;18.418;2023-03-04T03:25:37;17.93;;;14.60;;
24259;SDS011;12384;48.112;18.418;2023-03-04T03:28:06;19.77;;;15.10;;
24259;SDS011;12384;48.112;18.418;2023-03-04T03:30:36;19.43;;;14.90;;
24259;SDS011;12384;48.112;18.418;2023-03-04T03:33:05;21.97;;;15.60;;
24259;SDS011;12384;48.112;18.418;2023-03-04T03:35:36;20.60;;;16.60;;
24259;SDS011;12384;48.112;18.418;2023-03-04T03:38:04;19.57;;;16.13;;
24259;SDS011;12384;48.112;18.418;2023-03-04T03:40:33;20.30;;;16.80;;
24259;SDS011;12384;48.112;18.418;2023-03-04T03:43:01;21.70;;;17.10;;
24259;SDS011;12384;48.112;18.418;2023-03-04T03:45:29;22.07;;;17.07;;
24259;SDS011;12384;48.112;18.418;2023-03-04T03:47:58;24.07;;;17.67;;
24259;SDS011;12384;48.112;18.418;2023-03-04T03:50:27;20.10;;;17.23;;
24259;SDS011;12384;48.112;18.418;2023-03-04T03:52:56;22.00;;;17.07;;
24259;SDS011;12384;48.112;18.418;2023-03-04T03:55:25;22.57;;;17.53;;
24259;SDS011;12384;48.112;18.418;2023-03-04T03:57:54;22.53;;;17.43;;
24259;SDS011;12384;48.112;18.418;2023-03-04T04:00:22;23.17;;;17.03;;
24259;SDS011;12384;48.112;18.418;2023-03-04T04:02:51;20.90;;;16.50;;
24259;SDS011;12384;48.112;18.418;2023-03-04T04:05:21;20.80;;;16.67;;
24259;SDS011;12384;48.112;18.418;2023-03-04T04:07:49;21.37;;;16.90;;
24259;SDS011;12384;48.112;18.418;2023-03-04T04:10:21;18.47;;;16.47;;
24259;SDS011;12384;48.112;18.418;2023-03-04T04:12:49;20.40;;;17.03;;
24259;SDS011;12384;48.112;18.418;2023-03-04T04:15:17;19.73;;;17.40;;
24259;SDS011;12384;48.112;18.418;2023-03-04T04:17:46;21.83;;;17.20;;
24259;SDS011;12384;48.112;18.418;2023-03-04T04:20:15;22.03;;;17.80;;
24259;SDS011;12384;48.112;18.418;2023-03-04T04:22:43;21.60;;;16.17;;
24259;SDS011;12384;48.112;18.418;2023-03-04T04:25:11;21.33;;;16.57;;
24259;SDS011;12384;48.112;18.418;2023-03-04T04:27:41;23.77;;;17.17;;
24259;SDS011;12384;48.112;18.418;2023-03-04T04:30:11;21.77;;;16.93;;
24259;SDS011;12384;48.112;18.418;2023-03-04T04:32:39;18.87;;;15.80;;
24259;SDS011;12384;48.112;18.418;2023-03-04T04:35:08;21.43;;;16.73;;
24259;SDS011;12384;48.112;18.418;2023-03-04T04:37:36;21.47;;;16.83;;
24259;SDS011;12384;48.112;18.418;2023-03-04T04:40:05;21.47;;;16.47;;
24259;SDS011;12384;48.112;18.418;2023-03-04T04:42:34;21.90;;;18.50;;
24259;SDS011;12384;48.112;18.418;2023-03-04T04:45:04;20.87;;;17.20;;
24259;SDS011;12384;48.112;18.418;2023-03-04T04:47:33;22.03;;;16.50;;
24259;SDS011;12384;48.112;18.418;2023-03-04T04:50:02;18.07;;;15.83;;
24259;SDS011;12384;48.112;18.418;2023-03-04T04:52:31;20.40;;;16.60;;
24259;SDS011;12384;48.112;18.418;2023-03-04T04:55:00;19.27;;;16.67;;
24259;SDS011;12384;48.112;18.418;2023-03-04T04:57:28;19.50;;;16.60;;
24259;SDS011;12384;48.112;18.418;2023-03-04T04:59:56;19.80;;;16.17;;
24259;SDS011;12384;48.112;18.418;2023-03-04T05:02:26;18.07;;;15.97;;
24259;SDS011;12384;48.112;18.418;2023-03-04T05:04:55;23.87;;;19.03;;
24259;SDS011;12384;48.112;18.418;2023-03-04T05:07:23;24.30;;;18.60;;
24259;SDS011;12384;48.112;18.418;2023-03-04T05:09:51;23.83;;;19.60;;
24259;SDS011;12384;48.112;18.418;2023-03-04T05:12:20;22.27;;;18.73;;
24259;SDS011;12384;48.112;18.418;2023-03-04T05:14:48;25.57;;;19.83;;
24259;SDS011;12384;48.112;18.418;2023-03-04T05:17:16;27.13;;;20.23;;
24259;SDS011;12384;48.112;18.418;2023-03-04T05:19:46;26.43;;;19.90;;
24259;SDS011;12384;48.112;18.418;2023-03-04T05:22:14;27.10;;;20.43;;
24259;SDS011;12384;48.112;18.418;2023-03-04T05:24:43;27.37;;;20.20;;
24259;SDS011;12384;48.112;18.418;2023-03-04T05:27:11;26.30;;;19.77;;
24259;SDS011;12384;48.112;18.418;2023-03-04T05:29:40;25.63;;;19.43;;
24259;SDS011;12384;48.112;18.418;2023-03-04T05:32:10;24.83;;;19.63;;
24259;SDS011;12384;48.112;18.418;2023-03-04T05:34:39;26.27;;;20.10;;
24259;SDS011;12384;48.112;18.418;2023-03-04T05:37:08;31.03;;;21.93;;
24259;SDS011;12384;48.112;18.418;2023-03-04T05:39:37;28.37;;;22.00;;
24259;SDS011;12384;48.112;18.418;2023-03-04T05:42:05;29.00;;;22.90;;
24259;SDS011;12384;48.112;18.418;2023-03-04T05:44:33;30.80;;;21.53;;
24259;SDS011;12384;48.112;18.418;2023-03-04T05:47:02;26.00;;;19.80;;
24259;SDS011;12384;48.112;18.418;2023-03-04T05:49:30;28.80;;;21.33;;
24259;SDS011;12384;48.112;18.418;2023-03-04T05:51:58;32.83;;;23.00;;
24259;SDS011;12384;48.112;18.418;2023-03-04T05:54:28;27.07;;;19.23;;
24259;SDS011;12384;48.112;18.418;2023-03-04T05:56:57;25.83;;;20.40;;
24259;SDS011;12384;48.112;18.418;2023-03-04T05:59:25;28.20;;;21.90;;
24259;SDS011;12384;48.112;18.418;2023-03-04T06:01:53;25.70;;;20.30;;
24259;SDS011;12384;48.112;18.418;2023-03-04T06:04:22;27.93;;;20.10;;
24259;SDS011;12384;48.112;18.418;2023-03-04T06:06:50;33.43;;;21.33;;
24259;SDS011;12384;48.112;18.418;2023-03-04T06:09:18;25.77;;;19.60;;
24259;SDS011;12384;48.112;18.418;2023-03-04T06:11:48;30.60;;;21.67;;
24259;SDS011;12384;48.112;18.418;2023-03-04T06:14:17;27.50;;;21.47;;
24259;SDS011;12384;48.112;18.418;2023-03-04T06:16:45;26.40;;;21.10;;
24259;SDS011;12384;48.112;18.418;2023-03-04T06:19:13;26.97;;;20.70;;
24259;SDS011;12384;48.112;18.418;2023-03-04T06:21:42;24.83;;;20.43;;
24259;SDS011;12384;48.112;18.418;2023-03-04T06:24:10;27.17;;;21.23;;
24259;SDS011;12384;48.112;18.418;2023-03-04T06:26:39;28.90;;;22.20;;
24259;SDS011;12384;48.112;18.418;2023-03-04T06:29:08;26.43;;;20.70;;
24259;SDS011;12384;48.112;18.418;2023-03-04T06:31:37;26.80;;;21.20;;
24259;SDS011;12384;48.112;18.418;2023-03-04T06:34:07;25.43;;;21.07;;
24259;SDS011;12384;48.112;18.418;2023-03-04T06:36:36;29.07;;;21.50;;
24259;SDS011;12384;48.112;18.418;2023-03-04T06:39:04;30.27;;;22.37;;
24259;SDS011;12384;48.112;18.418;2023-03-04T06:41:34;26.87;;;20.70;;
24259;SDS011;12384;48.112;18.418;2023-03-04T06:44:02;29.73;;;23.07;;
24259;SDS011;12384;48.112;18.418;2023-03-04T06:46:33;28.80;;;23.27;;
24259;SDS011;12384;48.112;18.418;2023-03-04T06:49:02;30.13;;;23.07;;
24259;SDS011;12384;48.112;18.418;2023-03-04T06:51:31;30.63;;;24.13;;
24259;SDS011;12384;48.112;18.418;2023-03-04T06:53:59;30.40;;;24.60;;
24259;SDS011;12384;48.112;18.418;2023-03-04T06:56:27;33.03;;;25.53;;
24259;SDS011;12384;48.112;18.418;2023-03-04T06:58:56;30.30;;;25.50;;
24259;SDS011;12384;48.112;18.418;2023-03-04T07:01:25;27.93;;;24.87;;
24259;SDS011;12384;48.112;18.418;2023-03-04T07:03:56;30.33;;;26.07;;
24259;SDS011;12384;48.112;18.418;2023-03-04T07:06:26;29.27;;;24.10;;
24259;SDS011;12384;48.112;18.418;2023-03-04T07:08:55;30.70;;;26.40;;
24259;SDS011;12384;48.112;18.418;2023-03-04T07:11:24;28.80;;;24.33;;
24259;SDS011;12384;48.112;18.418;2023-03-04T07:13:53;31.43;;;25.07;;
24259;SDS011;12384;48.112;18.418;2023-03-04T07:16:21;28.60;;;25.50;;
24259;SDS011;12384;48.112;18.418;2023-03-04T07:18:50;29.07;;;26.07;;
24259;SDS011;12384;48.112;18.418;2023-03-04T07:21:20;28.27;;;25.13;;
24259;SDS011;12384;48.112;18.418;2023-03-04T07:23:48;26.17;;;23.47;;
24259;SDS011;12384;48.112;18.418;2023-03-04T07:26:17;26.37;;;23.67;;
24259;SDS011;12384;48.112;18.418;2023-03-04T07:28:45;25.40;;;22.80;;
24259;SDS011;12384;48.112;18.418;2023-03-04T07:31:18;26.17;;;22.63;;
24259;SDS011;12384;48.112;18.418;2023-03-04T07:33:49;23.33;;;20.93;;
24259;SDS011;12384;48.112;18.418;2023-03-04T07:36:19;25.13;;;21.70;;
24259;SDS011;12384;48.112;18.418;2023-03-04T07:38:49;25.70;;;23.00;;
24259;SDS011;12384;48.112;18.418;2023-03-04T07:41:20;23.47;;;21.07;;
24259;SDS011;12384;48.112;18.418;2023-03-04T07:43:50;26.17;;;23.10;;
24259;SDS011;12384;48.112;18.418;2023-03-04T07:46:18;24.63;;;22.07;;
24259;SDS011;12384;48.112;18.418;2023-03-04T07:48:47;24.87;;;22.27;;
24259;SDS011;12384;48.112;18.418;2023-03-04T07:51:16;23.93;;;21.47;;
24259;SDS011;12384;48.112;18.418;2023-03-04T07:53:48;27.03;;;24.23;;
24259;SDS011;12384;48.112;18.418;2023-03-04T07:56:18;25.77;;;23.07;;
24259;SDS011;12384;48.112;18.418;2023-03-04T07:58:48;24.50;;;22.00;;
24259;SDS011;12384;48.112;18.418;2023-03-04T08:01:20;26.07;;;23.23;;
24259;SDS011;12384;48.112;18.418;2023-03-04T08:03:50;25.57;;;22.97;;
24259;SDS011;12384;48.112;18.418;2023-03-04T08:06:19;24.13;;;21.77;;
24259;SDS011;12384;48.112;18.418;2023-03-04T08:08:54;23.87;;;20.93;;
24259;SDS011;12384;48.112;18.418;2023-03-04T08:11:23;23.70;;;21.20;;
24259;SDS011;12384;48.112;18.418;2023-03-04T08:13:52;22.47;;;20.17;;
24259;SDS011;12384;48.112;18.418;2023-03-04T08:16:21;21.40;;;19.30;;
24259;SDS011;12384;48.112;18.418;2023-03-04T08:18:52;20.40;;;18.33;;
24259;SDS011;12384;48.112;18.418;2023-03-04T08:21:22;19.17;;;17.37;;
24259;SDS011;12384;48.112;18.418;2023-03-04T08:23:55;22.13;;;19.80;;
24259;SDS011;12384;48.112;18.418;2023-03-04T08:26:25;20.23;;;18.23;;
24259;SDS011;12384;48.112;18.418;2023-03-04T08:28:55;20.00;;;18.03;;
24259;SDS011;12384;48.112;18.418;2023-03-04T08:31:24;21.23;;;19.03;;
24259;SDS011;12384;48.112;18.418;2023-03-04T08:33:53;18.90;;;17.10;;
24259;SDS011;12384;48.112;18.418;2023-03-04T08:36:22;19.17;;;17.37;;
24259;SDS011;12384;48.112;18.418;2023-03-04T08:38:50;17.93;;;16.13;;
24259;SDS011;12384;48.112;18.418;2023-03-04T08:41:20;20.23;;;18.23;;
24259;SDS011;12384;48.112;18.418;2023-03-04T08:43:48;18.57;;;16.77;;
24259;SDS011;12384;48.112;18.418;2023-03-04T08:46:17;17.97;;;16.40;;
24259;SDS011;12384;48.112;18.418;2023-03-04T08:48:45;19.93;;;18.03;;
24259;SDS011;12384;48.112;18.418;2023-03-04T08:51:14;20.43;;;18.43;;
24259;SDS011;12384;48.112;18.418;2023-03-04T08:53:43;20.30;;;18.40;;
24259;SDS011;12384;48.112;18.418;2023-03-04T08:56:12;20.37;;;18.33;;
24259;SDS011;12384;48.112;18.418;2023-03-04T08:58:43;20.90;;;19.00;;
24259;SDS011;12384;48.112;18.418;2023-03-04T09:01:12;19.03;;;17.13;;
24259;SDS011;12384;48.112;18.418;2023-03-04T09:03:42;20.30;;;18.40;;
24259;SDS011;12384;48.112;18.418;2023-03-04T09:06:11;20.07;;;18.07;;
24259;SDS011;12384;48.112;18.418;2023-03-04T09:08:42;20.07;;;18.10;;
24259;SDS011;12384;48.112;18.418;2023-03-04T09:11:11;20.80;;;18.80;;
24259;SDS011;12384;48.112;18.418;2023-03-04T09:13:40;21.13;;;19.13;;
24259;SDS011;12384;48.112;18.418;2023-03-04T09:16:10;23.13;;;20.97;;
24259;SDS011;12384;48.112;18.418;2023-03-04T09:18:40;21.33;;;19.33;;
24259;SDS011;12384;48.112;18.418;2023-03-04T09:21:08;21.00;;;19.00;;
24259;SDS011;12384;48.112;18.418;2023-03-04T09:23:37;24.17;;;21.70;;
24259;SDS011;12384;48.112;18.418;2023-03-04T09:26:13;23.53;;;21.33;;
24259;SDS011;12384;48.112;18.418;2023-03-04T09:28:43;24.30;;;22.17;;
24259;SDS011;12384;48.112;18.418;2023-03-04T09:31:13;21.80;;;19.70;;
24259;SDS011;12384;48.112;18.418;2023-03-04T09:33:41;21.57;;;19.47;;
24259;SDS011;12384;48.112;18.418;2023-03-04T09:36:11;22.37;;;20.17;;
24259;SDS011;12384;48.112;18.418;2023-03-04T09:38:40;23.93;;;21.63;;
24259;SDS011;12384;48.112;18.418;2023-03-04T09:41:12;21.47;;;19.53;;
24259;SDS011;12384;48.112;18.418;2023-03-04T09:43:44;22.33;;;20.10;;
24259;SDS011;12384;48.112;18.418;2023-03-04T09:46:15;21.43;;;19.33;;
24259;SDS011;12384;48.112;18.418;2023-03-04T09:48:47;22.03;;;19.93;;
24259;SDS011;12384;48.112;18.418;2023-03-04T09:51:19;20.57;;;18.53;;
24259;SDS011;12384;48.112;18.418;2023-03-04T09:53:56;20.93;;;18.93;;
24259;SDS011;12384;48.112;18.418;2023-03-04T09:56:32;20.83;;;18.73;;
24259;SDS011;12384;48.112;18.418;2023-03-04T09:59:04;23.17;;;20.97;;
24259;SDS011;12384;48.112;18.418;2023-03-04T10:01:46;22.20;;;20.00;;
24259;SDS011;12384;48.112;18.418;2023-03-04T10:04:18;20.43;;;18.33;;
24259;SDS011;12384;48.112;18.418;2023-03-04T10:06:52;20.70;;;18.57;;
24259;SDS011;12384;48.112;18.418;2023-03-04T10:09:22;21.33;;;19.13;;
24259;SDS011;12384;48.112;18.418;2023-03-04T10:11:58;19.63;;;17.90;;
24259;SDS011;12384;48.112;18.418;2023-03-04T10:14:31;19.73;;;17.93;;
24259;SDS011;12384;48.112;18.418;2023-03-04T10:17:11;19.73;;;18.03;;
24259;SDS011;12384;48.112;18.418;2023-03-04T10:19:56;19.03;;;17.37;;
24259;SDS011;12384;48.112;18.418;2023-03-04T10:22:30;18.67;;;16.97;;
24259;SDS011;12384;48.112;18.418;2023-03-04T10:25:09;20.50;;;18.60;;
24259;SDS011;12384;48.112;18.418;2023-03-04T10:27:45;18.93;;;17.23;;
24259;SDS011;12384;48.112;18.418;2023-03-04T10:30:19;20.83;;;18.93;;
24259;SDS011;12384;48.112;18.418;2023-03-04T10:33:00;20.23;;;18.33;;
24259;SDS011;12384;48.112;18.418;2023-03-04T10:35:31;20.00;;;18.10;;
24259;SDS011;12384;48.112;18.418;2023-03-04T10:38:03;19.60;;;17.90;;
24259;SDS011;12384;48.112;18.418;2023-03-04T10:40:36;20.67;;;18.77;;
24259;SDS011;12384;48.112;18.418;2023-03-04T10:43:11;17.83;;;16.23;;
24259;SDS011;12384;48.112;18.418;2023-03-04T10:45:42;18.37;;;16.53;;
24259;SDS011;12384;48.112;18.418;2023-03-04T10:48:20;17.20;;;15.47;;
24259;SDS011;12384;48.112;18.418;2023-03-04T10:50:50;18.43;;;16.67;;
24259;SDS011;12384;48.112;18.418;2023-03-04T10:53:27;18.10;;;16.50;;
24259;SDS011;12384;48.112;18.418;2023-03-04T10:56:00;18.90;;;17.03;;
24259;SDS011;12384;48.112;18.418;2023-03-04T10:58:28;18.33;;;16.73;;
24259;SDS011;12384;48.112;18.418;2023-03-04T11:01:01;17.63;;;16.13;;
24259;SDS011;12384;48.112;18.418;2023-03-04T11:03:34;17.53;;;16.03;;
24259;SDS011;12384;48.112;18.418;2023-03-04T11:06:05;16.77;;;15.37;;
24259;SDS011;12384;48.112;18.418;2023-03-04T11:08:39;16.80;;;15.30;;
24259;SDS011;12384;48.112;18.418;2023-03-04T11:11:21;20.10;;;18.30;;
24259;SDS011;12384;48.112;18.418;2023-03-04T11:14:00;17.90;;;16.30;;
24259;SDS011;12384;48.112;18.418;2023-03-04T11:16:35;19.60;;;17.83;;
24259;SDS011;12384;48.112;18.418;2023-03-04T11:19:12;18.93;;;17.33;;
24259;SDS011;12384;48.112;18.418;2023-03-04T11:21:43;18.80;;;17.10;;
24259;SDS011;12384;48.112;18.418;2023-03-04T11:24:13;19.00;;;17.30;;
24259;SDS011;12384;48.112;18.418;2023-03-04T11:26:56;18.17;;;16.57;;
24259;SDS011;12384;48.112;18.418;2023-03-04T11:29:30;17.60;;;16.10;;
24259;SDS011;12384;48.112;18.418;2023-03-04T11:32:05;16.63;;;15.33;;
24259;SDS011;12384;48.112;18.418;2023-03-04T11:34:40;16.97;;;15.57;;
24259;SDS011;12384;48.112;18.418;2023-03-04T11:37:15;16.17;;;14.67;;
24259;SDS011;12384;48.112;18.418;2023-03-04T11:39:50;17.37;;;15.90;;
24259;SDS011;12384;48.112;18.418;2023-03-04T11:42:25;17.20;;;15.77;;
24259;SDS011;12384;48.112;18.418;2023-03-04T11:44:59;17.17;;;15.57;;
24259;SDS011;12384;48.112;18.418;2023-03-04T11:47:32;18.47;;;16.97;;
24259;SDS011;12384;48.112;18.418;2023-03-04T11:56:00;18.13;;;16.53;;
24259;SDS011;12384;48.112;18.418;2023-03-04T12:01:48;19.43;;;17.73;;
24259;SDS011;12384;48.112;18.418;2023-03-04T12:04:36;19.07;;;17.37;;
24259;SDS011;12384;48.112;18.418;2023-03-04T12:07:19;18.10;;;16.50;;
24259;SDS011;12384;48.112;18.418;2023-03-04T12:10:01;18.37;;;16.67;;
24259;SDS011;12384;48.112;18.418;2023-03-04T12:12:46;18.27;;;16.77;;
24259;SDS011;12384;48.112;18.418;2023-03-04T12:15:40;19.30;;;17.43;;
24259;SDS011;12384;48.112;18.418;2023-03-04T12:21:12;18.30;;;16.70;;
24259;SDS011;12384;48.112;18.418;2023-03-04T12:23:52;18.13;;;16.33;;
24259;SDS011;12384;48.112;18.418;2023-03-04T12:26:37;19.33;;;17.53;;
24259;SDS011;12384;48.112;18.418;2023-03-04T12:29:12;20.63;;;18.73;;
24259;SDS011;12384;48.112;18.418;2023-03-04T12:31:45;18.83;;;17.07;;
24259;SDS011;12384;48.112;18.418;2023-03-04T12:34:34;20.10;;;18.40;;
24259;SDS011;12384;48.112;18.418;2023-03-04T12:37:24;18.63;;;17.03;;
24259;SDS011;12384;48.112;18.418;2023-03-04T12:40:21;17.47;;;15.87;;
24259;SDS011;12384;48.112;18.418;2023-03-04T12:43:03;17.57;;;16.07;;
24259;SDS011;12384;48.112;18.418;2023-03-04T12:45:39;16.97;;;15.50;;
24259;SDS011;12384;48.112;18.418;2023-03-04T12:48:17;18.97;;;17.30;;
24259;SDS011;12384;48.112;18.418;2023-03-04T12:50:57;18.30;;;16.70;;
24259;SDS011;12384;48.112;18.418;2023-03-04T12:53:38;19.53;;;17.83;;
24259;SDS011;12384;48.112;18.418;2023-03-04T12:56:18;19.10;;;17.50;;
24259;SDS011;12384;48.112;18.418;2023-03-04T12:58:52;20.15;;;18.35;;
24259;SDS011;12384;48.112;18.418;2023-03-04T13:01:22;19.47;;;17.60;;
24259;SDS011;12384;48.112;18.418;2023-03-04T13:03:56;19.97;;;18.27;;
24259;SDS011;12384;48.112;18.418;2023-03-04T13:06:30;18.85;;;17.08;;
24259;SDS011;12384;48.112;18.418;2023-03-04T13:09:08;20.70;;;18.77;;
24259;SDS011;12384;48.112;18.418;2023-03-04T13:11:48;20.33;;;18.53;;
24259;SDS011;12384;48.112;18.418;2023-03-04T13:14:28;19.43;;;17.73;;
24259;SDS011;12384;48.112;18.418;2023-03-04T13:17:17;19.10;;;17.50;;
24259;SDS011;12384;48.112;18.418;2023-03-04T13:20:17;21.47;;;19.33;;
24259;SDS011;12384;48.112;18.418;2023-03-04T13:23:00;20.10;;;18.30;;
24259;SDS011;12384;48.112;18.418;2023-03-04T13:25:31;21.03;;;19.17;;
24259;SDS011;12384;48.112;18.418;2023-03-04T13:28:17;21.80;;;19.77;;
24259;SDS011;12384;48.112;18.418;2023-03-04T13:33:54;22.00;;;19.83;;
24259;SDS011;12384;48.112;18.418;2023-03-04T13:39:30;20.23;;;18.40;;
24259;SDS011;12384;48.112;18.418;2023-03-04T13:42:01;21.33;;;19.33;;
24259;SDS011;12384;48.112;18.418;2023-03-04T13:44:34;21.37;;;19.40;;
24259;SDS011;12384;48.112;18.418;2023-03-04T13:47:32;21.80;;;19.80;;
24259;SDS011;12384;48.112;18.418;2023-03-04T13:50:32;22.90;;;20.70;;
24259;SDS011;12384;48.112;18.418;2023-03-04T13:56:11;23.83;;;21.63;;
24259;SDS011;12384;48.112;18.418;2023-03-04T13:59:11;22.03;;;20.13;;
24259;SDS011;12384;48.112;18.418;2023-03-04T14:01:58;22.00;;;20.00;;
24259;SDS011;12384;48.112;18.418;2023-03-04T14:04:30;21.73;;;19.70;;
24259;SDS011;12384;48.112;18.418;2023-03-04T14:07:00;22.20;;;20.20;;
24259;SDS011;12384;48.112;18.418;2023-03-04T14:09:32;22.67;;;20.57;;
24259;SDS011;12384;48.112;18.418;2023-03-04T14:12:02;21.50;;;19.60;;
24259;SDS011;12384;48.112;18.418;2023-03-04T14:14:41;22.10;;;20.10;;
24259;SDS011;12384;48.112;18.418;2023-03-04T14:17:18;20.40;;;18.60;;
24259;SDS011;12384;48.112;18.418;2023-03-04T14:19:49;20.80;;;18.90;;
24259;SDS011;12384;48.112;18.418;2023-03-04T14:22:20;22.23;;;20.13;;
24259;SDS011;12384;48.112;18.418;2023-03-04T14:24:55;21.53;;;19.53;;
24259;SDS011;12384;48.112;18.418;2023-03-04T14:27:24;20.13;;;18.30;;
24259;SDS011;12384;48.112;18.418;2023-03-04T14:29:56;22.27;;;20.37;;
24259;SDS011;12384;48.112;18.418;2023-03-04T14:32:27;21.73;;;19.83;;
24259;SDS011;12384;48.112;18.418;2023-03-04T14:34:57;18.80;;;17.20;;
24259;SDS011;12384;48.112;18.418;2023-03-04T14:37:30;21.40;;;19.50;;
24259;SDS011;12384;48.112;18.418;2023-03-04T14:40:04;21.70;;;19.63;;
24259;SDS011;12384;48.112;18.418;2023-03-04T14:42:35;20.27;;;18.47;;
24259;SDS011;12384;48.112;18.418;2023-03-04T14:45:08;21.57;;;19.67;;
24259;SDS011;12384;48.112;18.418;2023-03-04T14:47:43;21.67;;;19.67;;
24259;SDS011;12384;48.112;18.418;2023-03-04T14:50:14;22.00;;;20.00;;
24259;SDS011;12384;48.112;18.418;2023-03-04T14:52:44;22.10;;;20.13;;
24259;SDS011;12384;48.112;18.418;2023-03-04T14:55:19;22.70;;;20.60;;